Time,TemperatureF,DewpointF,PressureIn,WindDirection,WindDirectionDegrees,WindSpeedMPH,WindSpeedGustMPH,Humidity,HourlyPrecipIn,Conditions,Clouds,dailyrainin,SoftwareType,DateUTC
2013-05-25 00:05:00,46.7,38.5,30.35,WNW,288,0.0,0.0,73,0.00,,,0.00,VWS V12.07,2013-05-25 05:05:00,
2013-05-25 00:10:00,46.4,38.6,30.36,WNW,288,0.0,0.0,74,0.00,,,0.00,VWS V12.07,2013-05-25 05:10:00,
2013-05-25 00:15:00,46.2,38.4,30.36,WNW,288,0.0,0.0,74,0.00,,,0.00,VWS V12.07,2013-05-25 05:15:00,
2013-05-25 00:20:00,46.1,38.3,30.36,WNW,288,0.0,1.0,74,0.00,,,0.00,VWS V12.07,2013-05-25 05:20:00,
2013-05-25 00:25:00,45.9,38.8,30.36,WNW,288,0.0,1.0,76,0.00,,,0.00,VWS V12.07,2013-05-25 05:25:00,
2013-05-25 00:30:00,45.6,38.5,30.36,WNW,288,0.0,1.0,76,0.00,,,0.00,VWS V12.07,2013-05-25 05:30:00,
2013-05-25 00:35:00,45.4,38.6,30.36,WNW,288,0.0,0.0,77,0.00,,,0.00,VWS V12.07,2013-05-25 05:35:00,
2013-05-25 00:45:00,45.3,38.5,30.36,WNW,288,0.0,0.0,77,0.00,,,0.00,VWS V12.07,2013-05-25 05:45:00,
2013-05-25 00:50:00,45.2,38.8,30.37,WNW,288,0.0,0.0,78,0.00,,,0.00,VWS V12.07,2013-05-25 05:50:00,
2013-05-25 00:55:00,45.0,38.6,30.37,WNW,288,0.0,0.0,78,0.00,,,0.00,VWS V12.07,2013-05-25 05:55:00,
2013-05-25 01:00:00,45.0,38.9,30.37,WNW,288,0.0,0.0,79,0.00,,,0.00,VWS V12.07,2013-05-25 06:00:00,
2013-05-25 01:05:00,45.0,39.2,30.37,WNW,288,0.0,0.0,80,0.00,,,0.00,VWS V12.07,2013-05-25 06:05:00,
2013-05-25 01:10:00,45.0,39.2,30.37,WNW,288,0.0,0.0,80,0.00,,,0.00,VWS V12.07,2013-05-25 06:10:00,
2013-05-25 01:15:00,45.0,39.2,30.38,WNW,288,0.0,0.0,80,0.00,,,0.00,VWS V12.07,2013-05-25 06:15:00,
2013-05-25 01:20:00,44.9,39.1,30.37,WNW,288,0.0,0.0,80,0.00,,,0.00,VWS V12.07,2013-05-25 06:20:00,
2013-05-25 01:25:00,44.8,39.3,30.37,WNW,288,0.0,0.0,81,0.00,,,0.00,VWS V12.07,2013-05-25 06:25:00,
2013-05-25 01:30:00,44.6,39.1,30.37,WNW,288,0.0,0.0,81,0.00,,,0.00,VWS V12.07,2013-05-25 06:30:00,
2013-05-25 01:35:00,44.5,39.4,30.37,WNW,288,0.0,0.0,82,0.00,,,0.00,VWS V12.07,2013-05-25 06:35:00,
2013-05-25 01:40:00,44.3,39.2,30.37,WNW,288,0.0,0.0,82,0.00,,,0.00,VWS V12.07,2013-05-25 06:40:00,
2013-05-25 01:45:00,44.2,39.1,30.37,WNW,288,0.0,0.0,82,0.00,,,0.00,VWS V12.07,2013-05-25 06:45:00,
2013-05-25 01:55:00,44.0,39.2,30.37,WNW,288,0.0,0.0,83,0.00,,,0.00,VWS V12.07,2013-05-25 06:55:00,
2013-05-25 02:00:00,43.9,39.1,30.37,WNW,288,0.0,0.0,83,0.00,,,0.00,VWS V12.07,2013-05-25 07:00:00,
2013-05-25 02:05:00,43.8,39.3,30.37,WNW,288,0.0,0.0,84,0.00,,,0.00,VWS V12.07,2013-05-25 07:05:00,
2013-05-25 02:10:00,43.7,39.2,30.37,WNW,288,0.0,0.0,84,0.00,,,0.00,VWS V12.07,2013-05-25 07:10:00,
2013-05-25 02:15:00,43.7,39.2,30.37,WNW,288,0.0,0.0,84,0.00,,,0.00,VWS V12.07,2013-05-25 07:15:00,
2013-05-25 02:25:00,43.5,39.0,30.37,WNW,288,0.0,0.0,84,0.00,,,0.00,VWS V12.07,2013-05-25 07:25:00,
2013-05-25 02:30:00,43.5,39.0,30.37,WNW,288,0.0,0.0,84,0.00,,,0.00,VWS V12.07,2013-05-25 07:30:00,
2013-05-25 02:40:00,43.3,38.8,30.36,WNW,288,0.0,0.0,84,0.00,,,0.00,VWS V12.07,2013-05-25 07:40:00,
2013-05-25 02:45:00,43.3,38.8,30.37,WNW,288,0.0,0.0,84,0.00,,,0.00,VWS V12.07,2013-05-25 07:45:00,
2013-05-25 02:50:00,43.3,38.8,30.37,WNW,288,0.0,0.0,84,0.00,,,0.00,VWS V12.07,2013-05-25 07:50:00,
2013-05-25 02:55:00,43.3,38.8,30.36,WNW,288,0.0,0.0,84,0.00,,,0.00,VWS V12.07,2013-05-25 07:55:00,
2013-05-25 03:00:00,43.3,39.1,30.36,WNW,288,0.0,0.0,85,0.00,,,0.00,VWS V12.07,2013-05-25 08:00:00,
2013-05-25 03:05:00,43.4,38.9,30.36,WNW,288,0.0,0.0,84,0.00,,,0.00,VWS V12.07,2013-05-25 08:05:00,
2013-05-25 03:10:00,43.4,38.9,30.36,WNW,288,0.0,0.0,84,0.00,,,0.00,VWS V12.07,2013-05-25 08:10:00,
2013-05-25 03:15:00,43.4,38.9,30.36,WNW,288,0.0,0.0,84,0.00,,,0.00,VWS V12.07,2013-05-25 08:15:00,
2013-05-25 03:20:00,43.4,38.9,30.36,WNW,288,0.0,0.0,84,0.00,,,0.00,VWS V12.07,2013-05-25 08:20:00,
2013-05-25 03:25:00,43.4,38.6,30.37,WNW,288,0.0,0.0,83,0.00,,,0.00,VWS V12.07,2013-05-25 08:25:00,
2013-05-25 03:30:00,43.3,38.5,30.37,WNW,288,0.0,0.0,83,0.00,,,0.00,VWS V12.07,2013-05-25 08:30:00,
2013-05-25 03:35:00,43.2,38.4,30.36,WNW,288,0.0,0.0,83,0.00,,,0.00,VWS V12.07,2013-05-25 08:35:00,
2013-05-25 03:45:00,43.1,38.3,30.36,WNW,295,0.0,1.0,83,0.00,,,0.00,VWS V12.07,2013-05-25 08:45:00,
2013-05-25 03:50:00,43.1,38.0,30.36,WNW,295,0.0,1.0,82,0.00,,,0.00,VWS V12.07,2013-05-25 08:50:00,
2013-05-25 04:00:00,42.9,37.5,30.36,WNW,295,0.0,1.0,81,0.00,,,0.00,VWS V12.07,2013-05-25 09:00:00,
2013-05-25 04:05:00,42.8,37.4,30.36,WNW,295,0.0,0.0,81,0.00,,,0.00,VWS V12.07,2013-05-25 09:05:00,
2013-05-25 04:10:00,42.8,37.4,30.36,WNW,295,0.0,0.0,81,0.00,,,0.00,VWS V12.07,2013-05-25 09:10:00,
2013-05-25 04:15:00,42.7,37.3,30.36,WNW,295,0.0,0.0,81,0.00,,,0.00,VWS V12.07,2013-05-25 09:15:00,
2013-05-25 04:20:00,42.6,37.2,30.36,WNW,295,0.0,0.0,81,0.00,,,0.00,VWS V12.07,2013-05-25 09:20:00,
2013-05-25 04:25:00,42.6,37.2,30.36,WNW,295,0.0,1.0,81,0.00,,,0.00,VWS V12.07,2013-05-25 09:25:00,
2013-05-25 04:30:00,42.5,36.8,30.36,WNW,295,0.0,1.0,80,0.00,,,0.00,VWS V12.07,2013-05-25 09:30:00,
2013-05-25 04:35:00,42.4,37.0,30.37,NNW,340,3.0,3.0,81,0.00,,,0.00,VWS V12.07,2013-05-25 09:35:00,
2013-05-25 04:40:00,42.3,36.9,30.37,NNW,342,0.0,3.0,81,0.00,,,0.00,VWS V12.07,2013-05-25 09:40:00,
2013-05-25 04:45:00,42.2,36.8,30.37,NNW,342,0.0,3.0,81,0.00,,,0.00,VWS V12.07,2013-05-25 09:45:00,
2013-05-25 04:55:00,41.8,36.7,30.38,NNW,342,0.0,3.0,82,0.00,,,0.00,VWS V12.07,2013-05-25 09:55:00,
2013-05-25 05:00:00,41.6,36.5,30.38,NNW,342,0.0,3.0,82,0.00,,,0.00,VWS V12.07,2013-05-25 10:00:00,
2013-05-25 05:05:00,41.5,36.7,30.38,NNW,342,0.0,1.0,83,0.00,,,0.00,VWS V12.07,2013-05-25 10:05:00,
2013-05-25 05:10:00,41.4,36.9,30.37,NNW,342,1.0,1.0,84,0.00,,,0.00,VWS V12.07,2013-05-25 10:10:00,
2013-05-25 05:15:00,41.3,36.8,30.37,NNW,342,0.0,1.0,84,0.00,,,0.00,VWS V12.07,2013-05-25 10:15:00,
2013-05-25 05:20:00,41.2,37.0,30.39,NNW,342,0.0,1.0,85,0.00,,,0.00,VWS V12.07,2013-05-25 10:20:00,
2013-05-25 05:25:00,41.2,37.0,30.39,NNW,342,0.0,1.0,85,0.00,,,0.00,VWS V12.07,2013-05-25 10:25:00,
2013-05-25 05:30:00,41.3,37.1,30.38,NNW,342,0.0,1.0,85,0.00,,,0.00,VWS V12.07,2013-05-25 10:30:00,
2013-05-25 05:35:00,41.4,37.2,30.39,NNW,342,0.0,0.0,85,0.00,,,0.00,VWS V12.07,2013-05-25 10:35:00,
2013-05-25 05:44:00,41.6,37.7,30.39,NNW,342,0.0,0.0,86,0.00,,,0.00,VWS V12.07,2013-05-25 10:44:00,
2013-05-25 05:54:00,41.9,37.7,30.40,NNW,342,0.0,1.0,85,0.00,,,0.00,VWS V12.07,2013-05-25 10:54:00,
2013-05-25 05:59:00,42.1,37.9,30.41,NNW,342,0.0,1.0,85,0.00,,,0.00,VWS V12.07,2013-05-25 10:59:00,
2013-05-25 06:04:00,42.3,38.1,30.41,NNW,342,0.0,0.0,85,0.00,,,0.00,VWS V12.07,2013-05-25 11:04:00,
2013-05-25 06:09:00,42.5,38.3,30.41,NNW,342,0.0,1.0,85,0.00,,,0.00,VWS V12.07,2013-05-25 11:09:00,
2013-05-25 06:19:00,43.0,38.5,30.41,NNW,342,0.0,1.0,84,0.00,,,0.00,VWS V12.07,2013-05-25 11:19:00,
2013-05-25 06:24:00,43.3,38.8,30.41,NNW,342,0.0,1.0,84,0.00,,,0.00,VWS V12.07,2013-05-25 11:24:00,
2013-05-25 06:29:00,43.6,38.8,30.42,NNW,342,0.0,1.0,83,0.00,,,0.00,VWS V12.07,2013-05-25 11:29:00,
2013-05-25 06:34:00,44.0,39.2,30.41,NNW,342,0.0,0.0,83,0.00,,,0.00,VWS V12.07,2013-05-25 11:34:00,
2013-05-25 06:44:00,44.8,39.3,30.42,NNW,342,0.0,1.0,81,0.00,,,0.00,VWS V12.07,2013-05-25 11:44:00,
2013-05-25 06:49:00,45.3,39.5,30.42,NNW,342,0.0,1.0,80,0.00,,,0.00,VWS V12.07,2013-05-25 11:49:00,
2013-05-25 06:54:00,45.9,39.8,30.42,WNW,295,0.0,3.0,79,0.00,,,0.00,VWS V12.07,2013-05-25 11:54:00,
2013-05-25 06:59:00,46.5,39.0,30.42,NW,318,0.0,3.0,75,0.00,,,0.00,VWS V12.07,2013-05-25 11:59:00,
2013-05-25 07:04:00,47.0,38.8,30.42,NNE,13,0.0,3.0,73,0.00,,,0.00,VWS V12.07,2013-05-25 12:04:00,
2013-05-25 07:09:00,47.4,38.8,30.42,ENE,78,0.0,3.0,72,0.00,,,0.00,VWS V12.07,2013-05-25 12:09:00,
2013-05-25 07:14:00,47.8,38.9,30.42,ENE,78,0.0,3.0,71,0.00,,,0.00,VWS V12.07,2013-05-25 12:14:00,
2013-05-25 07:19:00,48.2,38.5,30.42,NW,318,0.0,3.0,69,0.00,,,0.00,VWS V12.07,2013-05-25 12:19:00,
2013-05-25 07:24:00,48.7,38.2,30.42,North,5,1.0,3.0,67,0.00,,,0.00,VWS V12.07,2013-05-25 12:24:00,
2013-05-25 07:29:00,49.1,38.2,30.42,West,271,0.0,3.0,66,0.00,,,0.00,VWS V12.07,2013-05-25 12:29:00,
2013-05-25 07:34:00,49.4,38.9,30.43,WNW,294,0.0,2.0,67,0.00,,,0.00,VWS V12.07,2013-05-25 12:34:00,
2013-05-25 07:39:00,49.9,38.2,30.43,NW,323,0.0,3.0,64,0.00,,,0.00,VWS V12.07,2013-05-25 12:39:00,
2013-05-25 07:44:00,50.3,38.6,30.42,West,281,1.0,3.0,64,0.00,,,0.00,VWS V12.07,2013-05-25 12:44:00,
2013-05-25 07:49:00,50.6,38.1,30.42,SW,214,0.0,3.0,62,0.00,,,0.00,VWS V12.07,2013-05-25 12:49:00,
2013-05-25 07:54:00,50.9,38.4,30.42,NW,306,0.0,3.0,62,0.00,,,0.00,VWS V12.07,2013-05-25 12:54:00,
2013-05-25 07:59:00,51.2,37.8,30.42,ESE,121,0.0,3.0,60,0.00,,,0.00,VWS V12.07,2013-05-25 12:59:00,
2013-05-25 08:04:00,51.5,38.5,30.42,SSE,163,0.0,2.0,61,0.00,,,0.00,VWS V12.07,2013-05-25 13:04:00,
2013-05-25 08:09:00,51.9,38.9,30.41,NE,40,2.0,2.0,61,0.00,,,0.00,VWS V12.07,2013-05-25 13:09:00,
2013-05-25 08:14:00,52.3,39.7,30.41,North,355,1.0,2.0,62,0.00,,,0.00,VWS V12.07,2013-05-25 13:14:00,
2013-05-25 08:19:00,52.8,38.9,30.41,SSW,202,1.0,3.0,59,0.00,,,0.00,VWS V12.07,2013-05-25 13:19:00,
2013-05-25 08:24:00,53.1,39.2,30.41,NE,41,0.0,3.0,59,0.00,,,0.00,VWS V12.07,2013-05-25 13:24:00,
2013-05-25 08:29:00,53.5,39.5,30.40,WSW,237,0.0,3.0,59,0.00,,,0.00,VWS V12.07,2013-05-25 13:29:00,
2013-05-25 08:34:00,53.7,39.3,30.41,NW,321,0.0,0.0,58,0.00,,,0.00,VWS V12.07,2013-05-25 13:34:00,
2013-05-25 08:39:00,54.0,39.6,30.41,ENE,61,1.0,3.0,58,0.00,,,0.00,VWS V12.07,2013-05-25 13:39:00,
2013-05-25 08:49:00,54.9,39.5,30.41,WNW,290,0.0,3.0,56,0.00,,,0.00,VWS V12.07,2013-05-25 13:49:00,
2013-05-25 08:59:00,55.6,39.7,30.41,NNE,14,0.0,7.0,55,0.00,,,0.00,VWS V12.07,2013-05-25 13:59:00,
2013-05-25 09:09:00,56.4,40.9,30.40,ENE,74,0.0,3.0,56,0.00,,,0.00,VWS V12.07,2013-05-25 14:09:00,
2013-05-25 09:14:00,56.6,40.6,30.40,NE,52,0.0,4.0,55,0.00,,,0.00,VWS V12.07,2013-05-25 14:14:00,
2013-05-25 09:24:00,56.9,41.8,30.39,NNE,17,1.0,6.0,57,0.00,,,0.00,VWS V12.07,2013-05-25 14:24:00,
2013-05-25 09:29:00,57.3,41.8,30.39,NNW,346,0.0,6.0,56,0.00,,,0.00,VWS V12.07,2013-05-25 14:29:00,
2013-05-25 09:34:00,57.6,42.0,30.39,NNE,18,0.0,2.0,56,0.00,,,0.00,VWS V12.07,2013-05-25 14:34:00,
2013-05-25 09:39:00,58.0,41.0,30.39,NNW,339,0.0,3.0,53,0.00,,,0.00,VWS V12.07,2013-05-25 14:39:00,
2013-05-25 09:44:00,58.1,41.1,30.39,SE,144,0.0,3.0,53,0.00,,,0.00,VWS V12.07,2013-05-25 14:44:00,
2013-05-25 09:49:00,58.4,41.3,30.39,North,351,0.0,3.0,53,0.00,,,0.00,VWS V12.07,2013-05-25 14:49:00,
2013-05-25 09:54:00,59.0,41.9,30.40,SW,221,1.0,7.0,53,0.00,,,0.00,VWS V12.07,2013-05-25 14:54:00,
2013-05-25 09:59:00,59.0,41.4,30.40,North,5,0.0,7.0,52,0.00,,,0.00,VWS V12.07,2013-05-25 14:59:00,
2013-05-25 10:09:00,59.4,41.8,30.40,North,360,3.0,5.0,52,0.00,,,0.00,VWS V12.07,2013-05-25 15:09:00,
2013-05-25 10:14:00,59.6,42.0,30.39,NW,326,0.0,5.0,52,0.00,,,0.00,VWS V12.07,2013-05-25 15:14:00,
2013-05-25 10:19:00,59.8,42.2,30.39,North,5,0.0,5.0,52,0.00,,,0.00,VWS V12.07,2013-05-25 15:19:00,
2013-05-25 10:24:00,59.9,41.8,30.39,SSW,213,3.0,7.0,51,0.00,,,0.00,VWS V12.07,2013-05-25 15:24:00,
2013-05-25 10:29:00,59.9,40.7,30.39,ENE,67,3.0,7.0,49,0.00,,,0.00,VWS V12.07,2013-05-25 15:29:00,
2013-05-25 10:34:00,60.0,40.8,30.39,SSE,159,0.0,1.0,49,0.00,,,0.00,VWS V12.07,2013-05-25 15:34:00,
2013-05-25 10:44:00,60.5,42.3,30.39,NE,36,0.0,8.0,51,0.00,,,0.00,VWS V12.07,2013-05-25 15:44:00,
2013-05-25 10:49:00,61.0,41.7,30.39,WSW,242,1.0,8.0,49,0.00,,,0.00,VWS V12.07,2013-05-25 15:49:00,
2013-05-25 10:54:00,61.5,42.2,30.39,SSW,205,1.0,8.0,49,0.00,,,0.00,VWS V12.07,2013-05-25 15:54:00,
2013-05-25 10:59:00,61.8,43.0,30.39,NNE,17,1.0,8.0,50,0.00,,,0.00,VWS V12.07,2013-05-25 15:59:00,
2013-05-25 11:04:00,62.1,42.2,30.39,South,176,0.0,5.0,48,0.00,,,0.00,VWS V12.07,2013-05-25 16:04:00,
2013-05-25 11:09:00,62.5,42.6,30.39,WNW,298,1.0,5.0,48,0.00,,,0.00,VWS V12.07,2013-05-25 16:09:00,
2013-05-25 11:14:00,62.7,42.8,30.40,NNE,30,4.0,6.0,48,0.00,,,0.00,VWS V12.07,2013-05-25 16:14:00,
2013-05-25 11:19:00,63.0,43.0,30.39,NNW,336,1.0,6.0,48,0.00,,,0.00,VWS V12.07,2013-05-25 16:19:00,
2013-05-25 11:29:00,63.3,42.2,30.38,NE,43,0.0,6.0,46,0.00,,,0.00,VWS V12.07,2013-05-25 16:29:00,
2013-05-25 11:39:00,63.1,43.1,30.39,North,5,0.0,7.0,48,0.00,,,0.00,VWS V12.07,2013-05-25 16:39:00,
2013-05-25 11:44:00,63.0,41.9,30.39,NE,45,0.0,7.0,46,0.00,,,0.00,VWS V12.07,2013-05-25 16:44:00,
2013-05-25 11:49:00,63.1,42.6,30.38,South,186,3.0,7.0,47,0.00,,,0.00,VWS V12.07,2013-05-25 16:49:00,
2013-05-25 11:54:00,63.4,41.7,30.38,South,180,2.0,8.0,45,0.00,,,0.00,VWS V12.07,2013-05-25 16:54:00,
2013-05-25 11:59:00,63.5,41.2,30.38,ENE,61,2.0,8.0,44,0.00,,,0.00,VWS V12.07,2013-05-25 16:59:00,
2013-05-25 12:09:00,63.3,41.6,30.38,West,260,2.0,5.0,45,0.00,,,0.00,VWS V12.07,2013-05-25 17:09:00,
2013-05-25 12:14:00,63.4,41.1,30.38,North,351,3.0,6.0,44,0.00,,,0.00,VWS V12.07,2013-05-25 17:14:00,
2013-05-25 12:19:00,63.5,41.8,30.38,WNW,299,0.0,6.0,45,0.00,,,0.00,VWS V12.07,2013-05-25 17:19:00,
2013-05-25 12:24:00,63.8,41.5,30.38,West,279,3.0,6.0,44,0.00,,,0.00,VWS V12.07,2013-05-25 17:24:00,
2013-05-25 12:29:00,64.1,41.8,30.38,WNW,290,2.0,6.0,44,0.00,,,0.00,VWS V12.07,2013-05-25 17:29:00,
2013-05-25 12:34:00,64.3,40.7,30.38,WNW,286,0.0,2.0,42,0.00,,,0.00,VWS V12.07,2013-05-25 17:34:00,
2013-05-25 12:39:00,64.3,40.7,30.37,NNW,328,1.0,4.0,42,0.00,,,0.00,VWS V12.07,2013-05-25 17:39:00,
2013-05-25 12:49:00,64.5,41.5,30.37,North,5,2.0,4.0,43,0.00,,,0.00,VWS V12.07,2013-05-25 17:49:00,
2013-05-25 12:54:00,64.4,40.8,30.37,ESE,110,1.0,4.0,42,0.00,,,0.00,VWS V12.07,2013-05-25 17:54:00,
2013-05-25 13:04:00,64.7,40.5,30.37,West,273,8.0,9.0,41,0.00,,,0.00,VWS V12.07,2013-05-25 18:04:00,
2013-05-25 13:09:00,64.6,39.8,30.37,NE,41,0.0,9.0,40,0.00,,,0.00,VWS V12.07,2013-05-25 18:09:00,
2013-05-25 13:14:00,64.5,40.3,30.37,NNE,30,1.0,9.0,41,0.00,,,0.00,VWS V12.07,2013-05-25 18:14:00,
2013-05-25 13:19:00,64.6,39.8,30.36,NNW,329,1.0,9.0,40,0.00,,,0.00,VWS V12.07,2013-05-25 18:19:00,
2013-05-25 13:24:00,64.5,39.7,30.36,West,259,1.0,9.0,40,0.00,,,0.00,VWS V12.07,2013-05-25 18:24:00,
2013-05-25 13:29:00,64.5,41.5,30.36,West,262,1.0,9.0,43,0.00,,,0.00,VWS V12.07,2013-05-25 18:29:00,
2013-05-25 13:34:00,64.7,41.1,30.36,WNW,295,0.0,4.0,42,0.00,,,0.00,VWS V12.07,2013-05-25 18:34:00,
2013-05-25 13:39:00,65.2,41.5,30.36,NE,36,2.0,6.0,42,0.00,,,0.00,VWS V12.07,2013-05-25 18:39:00,
2013-05-25 13:44:00,65.3,41.6,30.36,NNE,23,4.0,6.0,42,0.00,,,0.00,VWS V12.07,2013-05-25 18:44:00,
2013-05-25 13:49:00,65.1,40.2,30.36,WNW,287,1.0,6.0,40,0.00,,,0.00,VWS V12.07,2013-05-25 18:49:00,
2013-05-25 13:54:00,64.9,43.1,30.36,NE,38,1.0,8.0,45,0.00,,,0.00,VWS V12.07,2013-05-25 18:54:00,
2013-05-25 13:59:00,64.9,40.0,30.36,NNE,32,3.0,8.0,40,0.00,,,0.00,VWS V12.07,2013-05-25 18:59:00,
2013-05-25 14:09:00,65.3,41.0,30.35,NE,53,0.0,4.0,41,0.00,,,0.00,VWS V12.07,2013-05-25 19:09:00,
2013-05-25 14:14:00,65.4,40.5,30.36,West,279,3.0,4.0,40,0.00,,,0.00,VWS V12.07,2013-05-25 19:14:00,
2013-05-25 14:19:00,65.3,40.4,30.35,West,263,3.0,4.0,40,0.00,,,0.00,VWS V12.07,2013-05-25 19:19:00,
2013-05-25 14:24:00,65.0,40.8,30.35,West,272,2.0,7.0,41,0.00,,,0.00,VWS V12.07,2013-05-25 19:24:00,
2013-05-25 14:29:00,65.2,40.3,30.35,WSW,249,1.0,7.0,40,0.00,,,0.00,VWS V12.07,2013-05-25 19:29:00,
2013-05-25 14:34:00,65.4,41.1,30.35,NNE,27,1.0,2.0,41,0.00,,,0.00,VWS V12.07,2013-05-25 19:34:00,
2013-05-25 14:39:00,65.4,38.5,30.35,SE,126,0.0,4.0,37,0.00,,,0.00,VWS V12.07,2013-05-25 19:39:00,
2013-05-25 14:44:00,65.4,41.1,30.35,NE,55,1.0,4.0,41,0.00,,,0.00,VWS V12.07,2013-05-25 19:44:00,
2013-05-25 14:49:00,65.2,40.3,30.35,NNW,341,0.0,4.0,40,0.00,,,0.00,VWS V12.07,2013-05-25 19:49:00,
2013-05-25 14:54:00,65.2,39.6,30.35,WSW,239,1.0,5.0,39,0.00,,,0.00,VWS V12.07,2013-05-25 19:54:00,
2013-05-25 14:59:00,65.2,40.9,30.34,NNE,13,0.0,5.0,41,0.00,,,0.00,VWS V12.07,2013-05-25 19:59:00,
2013-05-25 15:04:00,65.6,42.5,30.35,North,360,1.0,4.0,43,0.00,,,0.00,VWS V12.07,2013-05-25 20:04:00,
2013-05-25 15:09:00,65.6,41.9,30.35,NNW,342,0.0,4.0,42,0.00,,,0.00,VWS V12.07,2013-05-25 20:09:00,
2013-05-25 15:14:00,65.5,41.2,30.35,West,274,2.0,6.0,41,0.00,,,0.00,VWS V12.07,2013-05-25 20:14:00,
2013-05-25 15:24:00,65.3,40.4,30.35,NE,55,3.0,6.0,40,0.00,,,0.00,VWS V12.07,2013-05-25 20:24:00,
2013-05-25 15:29:00,64.9,40.7,30.34,NE,43,2.0,6.0,41,0.00,,,0.00,VWS V12.07,2013-05-25 20:29:00,
2013-05-25 15:34:00,64.7,41.1,30.34,NE,44,3.0,4.0,42,0.00,,,0.00,VWS V12.07,2013-05-25 20:34:00,
2013-05-25 15:39:00,64.5,40.9,30.34,NE,44,0.0,4.0,42,0.00,,,0.00,VWS V12.07,2013-05-25 20:39:00,
2013-05-25 15:44:00,64.7,42.3,30.34,NNE,15,0.0,4.0,44,0.00,,,0.00,VWS V12.07,2013-05-25 20:44:00,
2013-05-25 15:49:00,65.1,40.8,30.34,West,278,3.0,4.0,41,0.00,,,0.00,VWS V12.07,2013-05-25 20:49:00,
2013-05-25 15:54:00,65.3,39.7,30.34,West,279,0.0,4.0,39,0.00,,,0.00,VWS V12.07,2013-05-25 20:54:00,
2013-05-25 16:04:00,65.4,41.1,30.34,WNW,291,0.0,3.0,41,0.00,,,0.00,VWS V12.07,2013-05-25 21:04:00,
2013-05-25 16:09:00,65.3,41.6,30.34,NNE,14,2.0,3.0,42,0.00,,,0.00,VWS V12.07,2013-05-25 21:09:00,
2013-05-25 16:14:00,65.1,43.3,30.34,NNE,13,2.0,3.0,45,0.00,,,0.00,VWS V12.07,2013-05-25 21:14:00,
2013-05-25 16:19:00,64.9,41.9,30.34,NNE,13,1.0,3.0,43,0.00,,,0.00,VWS V12.07,2013-05-25 21:19:00,
2013-05-25 16:24:00,64.9,41.9,30.34,NNE,13,0.0,3.0,43,0.00,,,0.00,VWS V12.07,2013-05-25 21:24:00,
2013-05-25 16:29:00,65.2,40.3,30.34,West,276,1.0,4.0,40,0.00,,,0.00,VWS V12.07,2013-05-25 21:29:00,
2013-05-25 16:34:00,65.4,40.5,30.33,West,265,1.0,4.0,40,0.00,,,0.00,VWS V12.07,2013-05-25 21:34:00,
2013-05-25 16:39:00,65.4,40.5,30.33,NNW,333,2.0,4.0,40,0.00,,,0.00,VWS V12.07,2013-05-25 21:39:00,
2013-05-25 16:44:00,65.4,40.5,30.33,East,100,0.0,4.0,40,0.00,,,0.00,VWS V12.07,2013-05-25 21:44:00,
2013-05-25 16:49:00,65.4,40.5,30.33,NNE,22,0.0,4.0,40,0.00,,,0.00,VWS V12.07,2013-05-25 21:49:00,
2013-05-25 16:59:00,65.3,42.2,30.33,NNE,21,1.0,4.0,43,0.00,,,0.00,VWS V12.07,2013-05-25 21:59:00,
2013-05-25 17:04:00,65.3,40.4,30.33,SW,232,0.0,2.0,40,0.00,,,0.00,VWS V12.07,2013-05-25 22:04:00,
2013-05-25 17:09:00,65.5,39.9,30.33,NW,313,0.0,2.0,39,0.00,,,0.00,VWS V12.07,2013-05-25 22:09:00,
2013-05-25 17:14:00,65.6,39.3,30.32,NNW,335,0.0,5.0,38,0.00,,,0.00,VWS V12.07,2013-05-25 22:14:00,
2013-05-25 17:19:00,65.5,40.6,30.33,West,263,3.0,5.0,40,0.00,,,0.00,VWS V12.07,2013-05-25 22:19:00,
2013-05-25 17:24:00,65.2,39.0,30.32,WNW,292,0.0,5.0,38,0.00,,,0.00,VWS V12.07,2013-05-25 22:24:00,
2013-05-25 17:29:00,64.9,40.0,30.32,WNW,292,2.0,5.0,40,0.00,,,0.00,VWS V12.07,2013-05-25 22:29:00,
2013-05-25 17:34:00,64.8,39.9,30.32,WNW,291,2.0,2.0,40,0.00,,,0.00,VWS V12.07,2013-05-25 22:34:00,
2013-05-25 17:39:00,64.7,39.2,30.32,NW,304,0.0,3.0,39,0.00,,,0.00,VWS V12.07,2013-05-25 22:39:00,
2013-05-25 17:44:00,64.6,40.4,30.32,NNW,327,0.0,3.0,41,0.00,,,0.00,VWS V12.07,2013-05-25 22:44:00,
2013-05-25 17:49:00,64.5,40.3,30.32,NE,38,0.0,3.0,41,0.00,,,0.00,VWS V12.07,2013-05-25 22:49:00,
2013-05-25 17:54:00,64.5,40.3,30.31,WNW,296,1.0,4.0,41,0.00,,,0.00,VWS V12.07,2013-05-25 22:54:00,
2013-05-25 17:59:00,64.5,39.7,30.31,NNE,28,0.0,4.0,40,0.00,,,0.00,VWS V12.07,2013-05-25 22:59:00,
2013-05-25 18:09:00,64.6,40.4,30.31,NW,308,1.0,4.0,41,0.00,,,0.00,VWS V12.07,2013-05-25 23:09:00,
2013-05-25 18:14:00,64.5,41.5,30.31,NW,306,0.0,4.0,43,0.00,,,0.00,VWS V12.07,2013-05-25 23:14:00,
2013-05-25 18:19:00,64.4,40.8,30.31,NNW,345,0.0,4.0,42,0.00,,,0.00,VWS V12.07,2013-05-25 23:19:00,
2013-05-25 18:24:00,64.3,40.1,30.31,West,280,0.0,4.0,41,0.00,,,0.00,VWS V12.07,2013-05-25 23:24:00,
2013-05-25 18:34:00,64.0,39.8,30.31,West,264,1.0,5.0,41,0.00,,,0.00,VWS V12.07,2013-05-25 23:34:00,
2013-05-25 18:39:00,63.9,39.8,30.31,NNW,329,0.0,6.0,41,0.00,,,0.00,VWS V12.07,2013-05-25 23:39:00,
2013-05-25 18:44:00,63.8,40.3,30.31,NW,318,0.0,6.0,42,0.00,,,0.00,VWS V12.07,2013-05-25 23:44:00,
2013-05-25 18:54:00,63.5,40.0,30.31,NE,46,0.0,6.0,42,0.00,,,0.00,VWS V12.07,2013-05-25 23:54:00,
2013-05-25 18:59:00,63.4,39.9,30.31,NE,46,0.0,6.0,42,0.00,,,0.00,VWS V12.07,2013-05-25 23:59:00,
2013-05-25 19:04:00,63.2,39.1,30.30,NE,46,0.0,0.0,41,0.00,,,0.00,VWS V12.07,2013-05-26 00:04:00,
2013-05-25 19:09:00,63.2,40.3,30.30,WNW,298,1.0,3.0,43,0.00,,,0.00,VWS V12.07,2013-05-26 00:09:00,
2013-05-25 19:14:00,63.1,40.9,30.31,WNW,301,0.0,3.0,44,0.00,,,0.00,VWS V12.07,2013-05-26 00:14:00,
2013-05-25 19:19:00,62.9,41.3,30.31,WNW,301,0.0,3.0,45,0.00,,,0.00,VWS V12.07,2013-05-26 00:19:00,
2013-05-25 19:24:00,62.6,41.5,30.31,NW,311,3.0,3.0,46,0.00,,,0.00,VWS V12.07,2013-05-26 00:24:00,
2013-05-25 19:29:00,62.3,41.3,30.31,NW,311,0.0,3.0,46,0.00,,,0.00,VWS V12.07,2013-05-26 00:29:00,
2013-05-25 19:34:00,62.2,41.2,30.31,NW,311,0.0,0.0,46,0.00,,,0.00,VWS V12.07,2013-05-26 00:34:00,
2013-05-25 19:39:00,61.9,42.0,30.31,NW,311,0.0,0.0,48,0.00,,,0.00,VWS V12.07,2013-05-26 00:39:00,
2013-05-25 19:49:00,61.1,41.8,30.31,NW,311,0.0,0.0,49,0.00,,,0.00,VWS V12.07,2013-05-26 00:49:00,
2013-05-25 19:54:00,60.7,41.5,30.31,NW,311,0.0,0.0,49,0.00,,,0.00,VWS V12.07,2013-05-26 00:54:00,
2013-05-25 19:59:00,60.3,42.6,30.31,NW,311,0.0,0.0,52,0.00,,,0.00,VWS V12.07,2013-05-26 00:59:00,
2013-05-25 20:04:00,59.8,41.7,30.30,NW,311,0.0,0.0,51,0.00,,,0.00,VWS V12.07,2013-05-26 01:04:00,
2013-05-25 20:09:00,59.3,41.2,30.30,NW,311,0.0,0.0,51,0.00,,,0.00,VWS V12.07,2013-05-26 01:09:00,
2013-05-25 20:14:00,59.0,41.4,30.30,NW,311,0.0,0.0,52,0.00,,,0.00,VWS V12.07,2013-05-26 01:14:00,
2013-05-25 20:19:00,58.6,41.0,30.30,NW,311,0.0,0.0,52,0.00,,,0.00,VWS V12.07,2013-05-26 01:19:00,
2013-05-25 20:24:00,58.0,41.0,30.30,NW,311,0.0,0.0,53,0.00,,,0.00,VWS V12.07,2013-05-26 01:24:00,
2013-05-25 20:29:00,57.6,40.6,30.30,NW,311,0.0,0.0,53,0.00,,,0.00,VWS V12.07,2013-05-26 01:29:00,
2013-05-25 20:34:00,57.2,41.2,30.31,NW,311,0.0,0.0,55,0.00,,,0.00,VWS V12.07,2013-05-26 01:34:00,
2013-05-25 20:39:00,56.7,40.7,30.31,NW,311,0.0,0.0,55,0.00,,,0.00,VWS V12.07,2013-05-26 01:39:00,
2013-05-25 20:44:00,56.2,41.2,30.31,NW,311,0.0,0.0,57,0.00,,,0.00,VWS V12.07,2013-05-26 01:44:00,
2013-05-25 20:49:00,55.8,40.8,30.31,NW,311,0.0,0.0,57,0.00,,,0.00,VWS V12.07,2013-05-26 01:49:00,
2013-05-25 20:54:00,55.4,40.9,30.31,NW,311,0.0,0.0,58,0.00,,,0.00,VWS V12.07,2013-05-26 01:54:00,
2013-05-25 20:59:00,55.1,40.6,30.31,NW,311,0.0,0.0,58,0.00,,,0.00,VWS V12.07,2013-05-26 01:59:00,
2013-05-25 21:04:00,54.8,40.3,30.31,NW,311,0.0,0.0,58,0.00,,,0.00,VWS V12.07,2013-05-26 02:04:00,
2013-05-25 21:09:00,54.6,40.6,30.31,NW,311,0.0,0.0,59,0.00,,,0.00,VWS V12.07,2013-05-26 02:09:00,
2013-05-25 21:14:00,54.3,40.3,30.31,NW,311,0.0,0.0,59,0.00,,,0.00,VWS V12.07,2013-05-26 02:14:00,
2013-05-25 21:19:00,54.0,40.4,30.32,NW,311,0.0,0.0,60,0.00,,,0.00,VWS V12.07,2013-05-26 02:19:00,
2013-05-25 21:24:00,53.7,40.6,30.32,NW,311,0.0,0.0,61,0.00,,,0.00,VWS V12.07,2013-05-26 02:24:00,
2013-05-25 21:29:00,53.5,40.4,30.32,NW,311,0.0,0.0,61,0.00,,,0.00,VWS V12.07,2013-05-26 02:29:00,
2013-05-25 21:34:00,53.2,40.1,30.32,NW,311,0.0,0.0,61,0.00,,,0.00,VWS V12.07,2013-05-26 02:34:00,
2013-05-25 21:44:00,52.7,40.9,30.32,NW,311,0.0,0.0,64,0.00,,,0.00,VWS V12.07,2013-05-26 02:44:00,
2013-05-25 21:49:00,52.5,40.7,30.32,NW,311,0.0,0.0,64,0.00,,,0.00,VWS V12.07,2013-05-26 02:49:00,
2013-05-25 21:54:00,52.3,40.5,30.33,NW,311,0.0,0.0,64,0.00,,,0.00,VWS V12.07,2013-05-26 02:54:00,
2013-05-25 22:04:00,51.8,40.8,30.33,NW,318,0.0,1.0,66,0.00,,,0.00,VWS V12.07,2013-05-26 03:04:00,
2013-05-25 22:09:00,51.7,41.1,30.32,NW,322,0.0,1.0,67,0.00,,,0.00,VWS V12.07,2013-05-26 03:09:00,
2013-05-25 22:14:00,51.5,41.3,30.33,NW,322,0.0,1.0,68,0.00,,,0.00,VWS V12.07,2013-05-26 03:14:00,
2013-05-25 22:19:00,51.5,41.3,30.33,NW,322,0.0,1.0,68,0.00,,,0.00,VWS V12.07,2013-05-26 03:19:00,
2013-05-25 22:29:00,51.2,41.0,30.33,NW,323,0.0,2.0,68,0.00,,,0.00,VWS V12.07,2013-05-26 03:29:00,
2013-05-25 22:34:00,51.1,41.3,30.33,NW,324,0.0,0.0,69,0.00,,,0.00,VWS V12.07,2013-05-26 03:34:00,
2013-05-25 22:44:00,50.8,40.6,30.34,NW,324,0.0,1.0,68,0.00,,,0.00,VWS V12.07,2013-05-26 03:44:00,
2013-05-25 22:49:00,50.7,40.9,30.34,NW,323,0.0,1.0,69,0.00,,,0.00,VWS V12.07,2013-05-26 03:49:00,
2013-05-25 22:54:00,50.6,40.4,30.34,NW,324,0.0,1.0,68,0.00,,,0.00,VWS V12.07,2013-05-26 03:54:00,
2013-05-25 22:59:00,50.4,40.2,30.34,North,360,0.0,2.0,68,0.00,,,0.00,VWS V12.07,2013-05-26 03:59:00,
2013-05-25 23:04:00,50.3,40.2,30.34,North,360,0.0,0.0,68,0.00,,,0.00,VWS V12.07,2013-05-26 04:04:00,
2013-05-25 23:09:00,50.2,40.1,30.34,North,350,0.0,1.0,68,0.00,,,0.00,VWS V12.07,2013-05-26 04:09:00,
2013-05-25 23:14:00,50.0,39.9,30.34,North,351,0.0,1.0,68,0.00,,,0.00,VWS V12.07,2013-05-26 04:14:00,
2013-05-25 23:19:00,49.8,39.7,30.34,North,351,0.0,1.0,68,0.00,,,0.00,VWS V12.07,2013-05-26 04:19:00,
2013-05-25 23:24:00,49.6,39.1,30.34,North,360,0.0,1.0,67,0.00,,,0.00,VWS V12.07,2013-05-26 04:24:00,
2013-05-25 23:29:00,49.5,39.4,30.34,North,360,0.0,1.0,68,0.00,,,0.00,VWS V12.07,2013-05-26 04:29:00,
2013-05-25 23:34:00,49.3,39.2,30.34,North,360,0.0,0.0,68,0.00,,,0.00,VWS V12.07,2013-05-26 04:34:00,
2013-05-25 23:39:00,49.1,39.4,30.34,North,360,0.0,1.0,69,0.00,,,0.00,VWS V12.07,2013-05-26 04:39:00,
2013-05-25 23:49:00,48.6,39.3,30.34,North,360,0.0,1.0,70,0.00,,,0.00,VWS V12.07,2013-05-26 04:49:00,
2013-05-25 23:54:00,48.4,39.1,30.34,North,360,0.0,1.0,70,0.00,,,0.00,VWS V12.07,2013-05-26 04:54:00,
2013-05-25 23:59:00,48.1,38.4,30.34,North,360,0.0,1.0,69,0.00,,,0.00,VWS V12.07,2013-05-26 04:59:00,